sensor_id;sensor_type;location;lat;lon;timestamp;P1;durP1;ratioP1;P2;durP2;ratioP2
28920;SDS011;16035;53.594;9.952;2023-08-06T00:01:18;1.63;;;1.10;;
28920;SDS011;16035;53.594;9.952;2023-08-06T00:03:21;1.40;;;1.05;;
28920;SDS011;16035;53.594;9.952;2023-08-06T00:05:21;1.40;;;1.00;;
28920;SDS011;16035;53.594;9.952;2023-08-06T00:07:21;2.37;;;0.83;;
28920;SDS011;16035;53.594;9.952;2023-08-06T00:09:22;1.20;;;0.90;;
28920;SDS011;16035;53.594;9.952;2023-08-06T00:11:22;1.03;;;0.80;;
28920;SDS011;16035;53.594;9.952;2023-08-06T00:13:23;3.10;;;1.40;;
28920;SDS011;16035;53.594;9.952;2023-08-06T00:15:23;1.33;;;0.97;;
28920;SDS011;16035;53.594;9.952;2023-08-06T00:17:23;1.90;;;1.07;;
28920;SDS011;16035;53.594;9.952;2023-08-06T00:19:24;1.37;;;1.00;;
28920;SDS011;16035;53.594;9.952;2023-08-06T00:21:24;2.47;;;1.10;;
28920;SDS011;16035;53.594;9.952;2023-08-06T00:23:24;2.90;;;0.97;;
28920;SDS011;16035;53.594;9.952;2023-08-06T00:25:25;1.53;;;0.90;;
28920;SDS011;16035;53.594;9.952;2023-08-06T00:27:25;0.80;;;0.80;;
28920;SDS011;16035;53.594;9.952;2023-08-06T00:29:26;2.80;;;1.10;;
28920;SDS011;16035;53.594;9.952;2023-08-06T00:31:26;1.13;;;1.03;;
28920;SDS011;16035;53.594;9.952;2023-08-06T00:33:27;1.00;;;0.90;;
28920;SDS011;16035;53.594;9.952;2023-08-06T00:35:27;1.37;;;1.00;;
28920;SDS011;16035;53.594;9.952;2023-08-06T00:37:27;2.77;;;1.53;;
28920;SDS011;16035;53.594;9.952;2023-08-06T00:39:28;1.70;;;1.30;;
28920;SDS011;16035;53.594;9.952;2023-08-06T00:41:28;3.20;;;1.47;;
28920;SDS011;16035;53.594;9.952;2023-08-06T00:43:28;1.63;;;1.50;;
28920;SDS011;16035;53.594;9.952;2023-08-06T00:45:29;1.67;;;1.27;;
28920;SDS011;16035;53.594;9.952;2023-08-06T00:47:30;1.73;;;1.23;;
28920;SDS011;16035;53.594;9.952;2023-08-06T00:49:31;2.42;;;1.52;;
28920;SDS011;16035;53.594;9.952;2023-08-06T00:51:31;1.73;;;1.60;;
28920;SDS011;16035;53.594;9.952;2023-08-06T00:53:32;1.60;;;1.37;;
28920;SDS011;16035;53.594;9.952;2023-08-06T00:55:32;3.17;;;1.93;;
28920;SDS011;16035;53.594;9.952;2023-08-06T00:57:33;2.07;;;1.30;;
28920;SDS011;16035;53.594;9.952;2023-08-06T00:59:34;2.03;;;1.83;;
28920;SDS011;16035;53.594;9.952;2023-08-06T01:01:34;2.50;;;2.25;;
28920;SDS011;16035;53.594;9.952;2023-08-06T01:03:35;2.33;;;1.93;;
28920;SDS011;16035;53.594;9.952;2023-08-06T01:05:35;3.90;;;1.47;;
28920;SDS011;16035;53.594;9.952;2023-08-06T01:07:49;2.97;;;2.23;;
28920;SDS011;16035;53.594;9.952;2023-08-06T01:10:14;2.03;;;1.60;;
28920;SDS011;16035;53.594;9.952;2023-08-06T01:12:55;1.90;;;1.65;;
28920;SDS011;16035;53.594;9.952;2023-08-06T01:15:12;2.55;;;2.10;;
28920;SDS011;16035;53.594;9.952;2023-08-06T01:17:17;3.38;;;2.05;;
28920;SDS011;16035;53.594;9.952;2023-08-06T01:19:18;2.80;;;2.10;;
28920;SDS011;16035;53.594;9.952;2023-08-06T01:21:19;2.55;;;2.17;;
28920;SDS011;16035;53.594;9.952;2023-08-06T01:23:19;2.80;;;2.23;;
28920;SDS011;16035;53.594;9.952;2023-08-06T01:25:20;3.67;;;2.55;;
28920;SDS011;16035;53.594;9.952;2023-08-06T01:27:30;2.55;;;2.35;;
28920;SDS011;16035;53.594;9.952;2023-08-06T01:29:41;2.55;;;2.00;;
28920;SDS011;16035;53.594;9.952;2023-08-06T01:31:50;3.95;;;2.63;;
28920;SDS011;16035;53.594;9.952;2023-08-06T01:33:52;3.60;;;2.50;;
28920;SDS011;16035;53.594;9.952;2023-08-06T01:35:54;5.72;;;2.75;;
28920;SDS011;16035;53.594;9.952;2023-08-06T01:37:55;2.88;;;2.05;;
28920;SDS011;16035;53.594;9.952;2023-08-06T01:39:56;3.15;;;2.33;;
28920;SDS011;16035;53.594;9.952;2023-08-06T01:41:57;2.80;;;2.40;;
28920;SDS011;16035;53.594;9.952;2023-08-06T01:43:57;3.60;;;2.63;;
28920;SDS011;16035;53.594;9.952;2023-08-06T01:45:57;2.60;;;2.20;;
28920;SDS011;16035;53.594;9.952;2023-08-06T01:47:58;2.83;;;2.23;;
28920;SDS011;16035;53.594;9.952;2023-08-06T01:49:58;2.20;;;2.00;;
28920;SDS011;16035;53.594;9.952;2023-08-06T01:51:58;4.00;;;2.50;;
28920;SDS011;16035;53.594;9.952;2023-08-06T01:53:59;4.97;;;2.43;;
28920;SDS011;16035;53.594;9.952;2023-08-06T01:55:59;4.67;;;1.93;;
28920;SDS011;16035;53.594;9.952;2023-08-06T01:57:59;2.90;;;2.20;;
28920;SDS011;16035;53.594;9.952;2023-08-06T02:00:00;2.37;;;1.90;;
28920;SDS011;16035;53.594;9.952;2023-08-06T02:02:00;2.97;;;2.37;;
28920;SDS011;16035;53.594;9.952;2023-08-06T02:04:00;3.10;;;2.47;;
28920;SDS011;16035;53.594;9.952;2023-08-06T02:06:01;2.10;;;1.90;;
28920;SDS011;16035;53.594;9.952;2023-08-06T02:08:02;3.50;;;2.60;;
28920;SDS011;16035;53.594;9.952;2023-08-06T02:10:02;4.33;;;2.70;;
28920;SDS011;16035;53.594;9.952;2023-08-06T02:12:03;2.40;;;2.13;;
28920;SDS011;16035;53.594;9.952;2023-08-06T02:14:03;3.67;;;2.45;;
28920;SDS011;16035;53.594;9.952;2023-08-06T02:16:06;5.37;;;2.43;;
28920;SDS011;16035;53.594;9.952;2023-08-06T02:18:08;2.65;;;2.15;;
28920;SDS011;16035;53.594;9.952;2023-08-06T02:20:08;2.90;;;2.40;;
28920;SDS011;16035;53.594;9.952;2023-08-06T02:22:09;3.55;;;2.80;;
28920;SDS011;16035;53.594;9.952;2023-08-06T02:24:09;5.00;;;2.77;;
28920;SDS011;16035;53.594;9.952;2023-08-06T02:26:10;3.43;;;2.70;;
28920;SDS011;16035;53.594;9.952;2023-08-06T02:28:10;3.20;;;2.40;;
28920;SDS011;16035;53.594;9.952;2023-08-06T02:30:10;4.03;;;2.20;;
28920;SDS011;16035;53.594;9.952;2023-08-06T02:32:11;4.23;;;2.60;;
28920;SDS011;16035;53.594;9.952;2023-08-06T02:34:11;3.83;;;2.23;;
28920;SDS011;16035;53.594;9.952;2023-08-06T02:36:11;3.33;;;2.53;;
28920;SDS011;16035;53.594;9.952;2023-08-06T02:38:12;4.07;;;2.77;;
28920;SDS011;16035;53.594;9.952;2023-08-06T02:40:12;3.73;;;2.73;;
28920;SDS011;16035;53.594;9.952;2023-08-06T02:42:12;2.73;;;2.37;;
28920;SDS011;16035;53.594;9.952;2023-08-06T02:44:13;3.20;;;2.50;;
28920;SDS011;16035;53.594;9.952;2023-08-06T02:46:13;3.00;;;2.20;;
28920;SDS011;16035;53.594;9.952;2023-08-06T02:48:13;4.00;;;2.70;;
28920;SDS011;16035;53.594;9.952;2023-08-06T02:50:13;3.57;;;2.27;;
28920;SDS011;16035;53.594;9.952;2023-08-06T02:52:14;3.30;;;2.37;;
28920;SDS011;16035;53.594;9.952;2023-08-06T02:54:14;3.77;;;2.10;;
28920;SDS011;16035;53.594;9.952;2023-08-06T02:56:14;3.57;;;2.77;;
28920;SDS011;16035;53.594;9.952;2023-08-06T02:58:15;4.70;;;2.83;;
28920;SDS011;16035;53.594;9.952;2023-08-06T03:00:16;3.25;;;2.60;;
28920;SDS011;16035;53.594;9.952;2023-08-06T03:02:16;4.97;;;2.80;;
28920;SDS011;16035;53.594;9.952;2023-08-06T03:04:17;3.77;;;2.47;;
28920;SDS011;16035;53.594;9.952;2023-08-06T03:06:18;2.50;;;2.10;;
28920;SDS011;16035;53.594;9.952;2023-08-06T03:08:18;3.13;;;2.47;;
28920;SDS011;16035;53.594;9.952;2023-08-06T03:10:22;4.97;;;2.17;;
28920;SDS011;16035;53.594;9.952;2023-08-06T03:12:22;3.97;;;2.40;;
28920;SDS011;16035;53.594;9.952;2023-08-06T03:14:23;6.47;;;2.60;;
28920;SDS011;16035;53.594;9.952;2023-08-06T03:16:23;4.77;;;2.63;;
28920;SDS011;16035;53.594;9.952;2023-08-06T03:18:23;3.73;;;2.57;;
28920;SDS011;16035;53.594;9.952;2023-08-06T03:20:24;4.57;;;2.43;;
28920;SDS011;16035;53.594;9.952;2023-08-06T03:22:25;4.22;;;2.33;;
28920;SDS011;16035;53.594;9.952;2023-08-06T03:24:25;3.10;;;2.67;;
28920;SDS011;16035;53.594;9.952;2023-08-06T03:26:25;2.70;;;2.40;;
28920;SDS011;16035;53.594;9.952;2023-08-06T03:28:26;5.37;;;2.70;;
28920;SDS011;16035;53.594;9.952;2023-08-06T03:30:26;3.37;;;2.33;;
28920;SDS011;16035;53.594;9.952;2023-08-06T03:32:26;5.43;;;2.53;;
28920;SDS011;16035;53.594;9.952;2023-08-06T03:34:27;6.67;;;2.60;;
28920;SDS011;16035;53.594;9.952;2023-08-06T03:36:27;4.33;;;2.40;;
28920;SDS011;16035;53.594;9.952;2023-08-06T03:38:27;4.37;;;2.90;;
28920;SDS011;16035;53.594;9.952;2023-08-06T03:40:28;2.83;;;2.40;;
28920;SDS011;16035;53.594;9.952;2023-08-06T03:42:28;4.23;;;2.43;;
28920;SDS011;16035;53.594;9.952;2023-08-06T03:44:29;4.03;;;2.70;;
28920;SDS011;16035;53.594;9.952;2023-08-06T03:46:29;3.83;;;2.63;;
28920;SDS011;16035;53.594;9.952;2023-08-06T03:48:32;3.08;;;2.53;;
28920;SDS011;16035;53.594;9.952;2023-08-06T03:50:32;4.20;;;2.50;;
28920;SDS011;16035;53.594;9.952;2023-08-06T03:52:33;3.53;;;2.40;;
28920;SDS011;16035;53.594;9.952;2023-08-06T03:54:33;2.47;;;2.27;;
28920;SDS011;16035;53.594;9.952;2023-08-06T03:56:33;5.20;;;2.30;;
28920;SDS011;16035;53.594;9.952;2023-08-06T03:58:34;2.20;;;1.83;;
28920;SDS011;16035;53.594;9.952;2023-08-06T04:00:34;2.73;;;2.30;;
28920;SDS011;16035;53.594;9.952;2023-08-06T04:02:34;5.83;;;2.57;;
28920;SDS011;16035;53.594;9.952;2023-08-06T04:04:35;5.10;;;2.53;;
28920;SDS011;16035;53.594;9.952;2023-08-06T04:06:35;3.23;;;2.20;;
28920;SDS011;16035;53.594;9.952;2023-08-06T04:08:35;7.00;;;2.87;;
28920;SDS011;16035;53.594;9.952;2023-08-06T04:10:36;4.13;;;2.67;;
28920;SDS011;16035;53.594;9.952;2023-08-06T04:12:36;6.57;;;3.10;;
28920;SDS011;16035;53.594;9.952;2023-08-06T04:14:39;5.75;;;2.88;;
28920;SDS011;16035;53.594;9.952;2023-08-06T04:16:39;4.23;;;2.47;;
28920;SDS011;16035;53.594;9.952;2023-08-06T04:18:39;3.37;;;2.33;;
28920;SDS011;16035;53.594;9.952;2023-08-06T04:20:46;3.17;;;2.50;;
28920;SDS011;16035;53.594;9.952;2023-08-06T04:22:46;4.55;;;2.97;;
28920;SDS011;16035;53.594;9.952;2023-08-06T04:24:47;3.13;;;2.60;;
28920;SDS011;16035;53.594;9.952;2023-08-06T04:26:47;4.50;;;2.50;;
28920;SDS011;16035;53.594;9.952;2023-08-06T04:28:48;5.50;;;3.03;;
28920;SDS011;16035;53.594;9.952;2023-08-06T04:30:48;2.88;;;2.45;;
28920;SDS011;16035;53.594;9.952;2023-08-06T04:32:49;3.20;;;2.70;;
28920;SDS011;16035;53.594;9.952;2023-08-06T04:34:50;4.95;;;2.67;;
28920;SDS011;16035;53.594;9.952;2023-08-06T04:36:50;4.07;;;3.00;;
28920;SDS011;16035;53.594;9.952;2023-08-06T04:38:50;3.80;;;2.77;;
28920;SDS011;16035;53.594;9.952;2023-08-06T04:40:51;4.47;;;3.03;;
28920;SDS011;16035;53.594;9.952;2023-08-06T04:42:51;3.17;;;2.80;;
28920;SDS011;16035;53.594;9.952;2023-08-06T04:44:52;3.40;;;2.27;;
28920;SDS011;16035;53.594;9.952;2023-08-06T04:46:52;4.20;;;3.20;;
28920;SDS011;16035;53.594;9.952;2023-08-06T04:48:53;5.57;;;3.17;;
28920;SDS011;16035;53.594;9.952;2023-08-06T04:50:53;4.93;;;2.60;;
28920;SDS011;16035;53.594;9.952;2023-08-06T04:52:54;7.82;;;3.75;;
28920;SDS011;16035;53.594;9.952;2023-08-06T04:54:55;4.30;;;2.90;;
28920;SDS011;16035;53.594;9.952;2023-08-06T04:56:55;8.07;;;3.10;;
28920;SDS011;16035;53.594;9.952;2023-08-06T04:58:56;5.97;;;3.10;;
28920;SDS011;16035;53.594;9.952;2023-08-06T05:02:59;4.27;;;2.80;;
28920;SDS011;16035;53.594;9.952;2023-08-06T05:05:00;5.32;;;3.13;;
28920;SDS011;16035;53.594;9.952;2023-08-06T05:07:00;4.67;;;3.00;;
28920;SDS011;16035;53.594;9.952;2023-08-06T05:09:01;4.10;;;2.57;;
28920;SDS011;16035;53.594;9.952;2023-08-06T05:11:01;2.77;;;2.23;;
28920;SDS011;16035;53.594;9.952;2023-08-06T05:13:01;5.07;;;2.77;;
28920;SDS011;16035;53.594;9.952;2023-08-06T05:15:02;4.17;;;3.00;;
28920;SDS011;16035;53.594;9.952;2023-08-06T05:17:03;4.47;;;2.87;;
28920;SDS011;16035;53.594;9.952;2023-08-06T05:19:04;4.03;;;2.83;;
28920;SDS011;16035;53.594;9.952;2023-08-06T05:21:05;5.13;;;3.03;;
28920;SDS011;16035;53.594;9.952;2023-08-06T05:23:05;4.23;;;2.77;;
28920;SDS011;16035;53.594;9.952;2023-08-06T05:25:05;4.00;;;2.70;;
28920;SDS011;16035;53.594;9.952;2023-08-06T05:27:06;4.68;;;3.13;;
28920;SDS011;16035;53.594;9.952;2023-08-06T05:29:06;4.93;;;2.77;;
28920;SDS011;16035;53.594;9.952;2023-08-06T05:31:07;4.87;;;3.13;;
28920;SDS011;16035;53.594;9.952;2023-08-06T05:33:07;5.43;;;2.60;;
28920;SDS011;16035;53.594;9.952;2023-08-06T05:35:08;6.28;;;3.22;;
28920;SDS011;16035;53.594;9.952;2023-08-06T05:37:08;5.30;;;2.77;;
28920;SDS011;16035;53.594;9.952;2023-08-06T05:39:09;4.18;;;2.92;;
28920;SDS011;16035;53.594;9.952;2023-08-06T05:41:09;4.40;;;3.30;;
28920;SDS011;16035;53.594;9.952;2023-08-06T05:43:10;4.73;;;2.90;;
28920;SDS011;16035;53.594;9.952;2023-08-06T05:45:10;5.07;;;2.87;;
28920;SDS011;16035;53.594;9.952;2023-08-06T05:47:10;4.30;;;3.73;;
28920;SDS011;16035;53.594;9.952;2023-08-06T05:49:11;3.90;;;3.23;;
28920;SDS011;16035;53.594;9.952;2023-08-06T05:51:13;5.35;;;2.88;;
28920;SDS011;16035;53.594;9.952;2023-08-06T05:53:14;5.50;;;3.40;;
28920;SDS011;16035;53.594;9.952;2023-08-06T05:55:14;3.57;;;2.80;;
28920;SDS011;16035;53.594;9.952;2023-08-06T05:57:15;7.93;;;3.13;;
28920;SDS011;16035;53.594;9.952;2023-08-06T05:59:15;5.77;;;3.33;;
28920;SDS011;16035;53.594;9.952;2023-08-06T06:01:15;4.70;;;3.13;;
28920;SDS011;16035;53.594;9.952;2023-08-06T06:03:16;8.10;;;3.65;;
28920;SDS011;16035;53.594;9.952;2023-08-06T06:05:17;6.20;;;3.40;;
28920;SDS011;16035;53.594;9.952;2023-08-06T06:07:17;7.13;;;3.20;;
28920;SDS011;16035;53.594;9.952;2023-08-06T06:09:17;5.27;;;3.27;;
28920;SDS011;16035;53.594;9.952;2023-08-06T06:11:17;7.57;;;3.40;;
28920;SDS011;16035;53.594;9.952;2023-08-06T06:13:21;4.85;;;2.88;;
28920;SDS011;16035;53.594;9.952;2023-08-06T06:15:22;4.47;;;3.13;;
28920;SDS011;16035;53.594;9.952;2023-08-06T06:17:22;4.63;;;3.17;;
28920;SDS011;16035;53.594;9.952;2023-08-06T06:19:22;5.80;;;2.93;;
28920;SDS011;16035;53.594;9.952;2023-08-06T06:21:23;8.97;;;5.00;;
28920;SDS011;16035;53.594;9.952;2023-08-06T06:23:24;7.10;;;3.53;;
28920;SDS011;16035;53.594;9.952;2023-08-06T06:25:24;8.30;;;4.33;;
28920;SDS011;16035;53.594;9.952;2023-08-06T06:27:24;5.03;;;3.53;;
28920;SDS011;16035;53.594;9.952;2023-08-06T06:29:25;6.33;;;3.87;;
28920;SDS011;16035;53.594;9.952;2023-08-06T06:31:25;7.27;;;3.83;;
28920;SDS011;16035;53.594;9.952;2023-08-06T06:33:25;5.77;;;3.43;;
28920;SDS011;16035;53.594;9.952;2023-08-06T06:35:26;4.87;;;3.73;;
28920;SDS011;16035;53.594;9.952;2023-08-06T06:37:26;4.53;;;3.20;;
28920;SDS011;16035;53.594;9.952;2023-08-06T06:39:26;6.10;;;4.17;;
28920;SDS011;16035;53.594;9.952;2023-08-06T06:41:27;8.17;;;3.43;;
28920;SDS011;16035;53.594;9.952;2023-08-06T06:43:29;5.78;;;3.53;;
28920;SDS011;16035;53.594;9.952;2023-08-06T06:45:29;6.80;;;3.43;;
28920;SDS011;16035;53.594;9.952;2023-08-06T06:47:30;5.90;;;3.80;;
28920;SDS011;16035;53.594;9.952;2023-08-06T06:49:30;5.93;;;4.07;;
28920;SDS011;16035;53.594;9.952;2023-08-06T06:51:30;5.77;;;3.80;;
28920;SDS011;16035;53.594;9.952;2023-08-06T06:53:31;5.90;;;3.03;;
28920;SDS011;16035;53.594;9.952;2023-08-06T06:55:32;5.53;;;3.83;;
28920;SDS011;16035;53.594;9.952;2023-08-06T06:57:32;9.50;;;3.93;;
28920;SDS011;16035;53.594;9.952;2023-08-06T06:59:32;7.80;;;3.50;;
28920;SDS011;16035;53.594;9.952;2023-08-06T07:01:33;5.80;;;3.47;;
28920;SDS011;16035;53.594;9.952;2023-08-06T07:03:33;4.67;;;3.47;;
28920;SDS011;16035;53.594;9.952;2023-08-06T07:05:33;6.30;;;3.60;;
28920;SDS011;16035;53.594;9.952;2023-08-06T07:07:34;4.37;;;3.13;;
28920;SDS011;16035;53.594;9.952;2023-08-06T07:09:35;8.15;;;3.58;;
28920;SDS011;16035;53.594;9.952;2023-08-06T07:11:35;9.13;;;3.87;;
28920;SDS011;16035;53.594;9.952;2023-08-06T07:13:35;5.87;;;3.63;;
28920;SDS011;16035;53.594;9.952;2023-08-06T07:15:36;6.13;;;3.80;;
28920;SDS011;16035;53.594;9.952;2023-08-06T07:17:36;6.93;;;3.70;;
28920;SDS011;16035;53.594;9.952;2023-08-06T07:19:37;6.50;;;3.43;;
28920;SDS011;16035;53.594;9.952;2023-08-06T07:21:37;4.17;;;3.20;;
28920;SDS011;16035;53.594;9.952;2023-08-06T07:23:37;4.40;;;3.77;;
28920;SDS011;16035;53.594;9.952;2023-08-06T07:25:38;6.00;;;3.47;;
28920;SDS011;16035;53.594;9.952;2023-08-06T07:27:38;6.13;;;3.53;;
28920;SDS011;16035;53.594;9.952;2023-08-06T07:29:39;7.35;;;4.15;;
28920;SDS011;16035;53.594;9.952;2023-08-06T07:31:39;7.17;;;3.97;;
28920;SDS011;16035;53.594;9.952;2023-08-06T07:33:40;8.60;;;4.43;;
28920;SDS011;16035;53.594;9.952;2023-08-06T07:35:40;6.97;;;4.43;;
28920;SDS011;16035;53.594;9.952;2023-08-06T07:37:40;8.00;;;4.10;;
28920;SDS011;16035;53.594;9.952;2023-08-06T07:39:41;6.83;;;3.83;;
28920;SDS011;16035;53.594;9.952;2023-08-06T07:41:42;7.72;;;3.97;;
28920;SDS011;16035;53.594;9.952;2023-08-06T07:43:43;7.40;;;4.30;;
28920;SDS011;16035;53.594;9.952;2023-08-06T07:45:43;5.03;;;3.97;;
28920;SDS011;16035;53.594;9.952;2023-08-06T07:47:43;9.10;;;4.53;;
28920;SDS011;16035;53.594;9.952;2023-08-06T07:49:44;9.27;;;5.07;;
28920;SDS011;16035;53.594;9.952;2023-08-06T07:51:44;9.37;;;3.97;;
28920;SDS011;16035;53.594;9.952;2023-08-06T07:53:44;7.63;;;4.00;;
28920;SDS011;16035;53.594;9.952;2023-08-06T07:55:47;6.33;;;4.37;;
28920;SDS011;16035;53.594;9.952;2023-08-06T07:57:51;8.95;;;4.90;;
28920;SDS011;16035;53.594;9.952;2023-08-06T07:59:51;7.13;;;4.10;;
28920;SDS011;16035;53.594;9.952;2023-08-06T08:01:53;8.35;;;4.32;;
28920;SDS011;16035;53.594;9.952;2023-08-06T08:03:53;6.23;;;3.93;;
28920;SDS011;16035;53.594;9.952;2023-08-06T08:05:54;7.30;;;4.43;;
28920;SDS011;16035;53.594;9.952;2023-08-06T08:07:57;6.55;;;3.70;;
28920;SDS011;16035;53.594;9.952;2023-08-06T08:09:57;12.10;;;3.77;;
28920;SDS011;16035;53.594;9.952;2023-08-06T08:11:58;9.80;;;4.90;;
28920;SDS011;16035;53.594;9.952;2023-08-06T08:14:01;11.25;;;4.15;;
28920;SDS011;16035;53.594;9.952;2023-08-06T08:16:01;7.40;;;4.10;;
28920;SDS011;16035;53.594;9.952;2023-08-06T08:18:02;7.78;;;4.90;;
28920;SDS011;16035;53.594;9.952;2023-08-06T08:20:02;5.93;;;4.40;;
28920;SDS011;16035;53.594;9.952;2023-08-06T08:22:03;5.88;;;3.80;;
28920;SDS011;16035;53.594;9.952;2023-08-06T08:24:03;5.57;;;3.80;;
28920;SDS011;16035;53.594;9.952;2023-08-06T08:26:04;5.80;;;4.47;;
28920;SDS011;16035;53.594;9.952;2023-08-06T08:28:05;6.10;;;4.33;;
28920;SDS011;16035;53.594;9.952;2023-08-06T08:30:05;5.30;;;3.87;;
28920;SDS011;16035;53.594;9.952;2023-08-06T08:32:06;6.25;;;4.70;;
28920;SDS011;16035;53.594;9.952;2023-08-06T08:34:06;9.93;;;4.53;;
28920;SDS011;16035;53.594;9.952;2023-08-06T08:36:06;11.40;;;4.43;;
28920;SDS011;16035;53.594;9.952;2023-08-06T08:38:07;5.93;;;3.90;;
28920;SDS011;16035;53.594;9.952;2023-08-06T08:40:07;7.00;;;4.00;;
28920;SDS011;16035;53.594;9.952;2023-08-06T08:42:08;8.02;;;4.55;;
28920;SDS011;16035;53.594;9.952;2023-08-06T08:44:10;7.72;;;4.55;;
28920;SDS011;16035;53.594;9.952;2023-08-06T08:46:11;9.67;;;4.67;;
28920;SDS011;16035;53.594;9.952;2023-08-06T08:48:12;6.55;;;3.90;;
28920;SDS011;16035;53.594;9.952;2023-08-06T08:50:14;4.88;;;4.10;;
28920;SDS011;16035;53.594;9.952;2023-08-06T08:52:15;7.78;;;4.47;;
28920;SDS011;16035;53.594;9.952;2023-08-06T08:54:17;5.45;;;4.25;;
28920;SDS011;16035;53.594;9.952;2023-08-06T08:56:18;6.53;;;4.15;;
28920;SDS011;16035;53.594;9.952;2023-08-06T08:58:19;8.50;;;4.50;;
28920;SDS011;16035;53.594;9.952;2023-08-06T09:00:19;9.47;;;4.93;;
28920;SDS011;16035;53.594;9.952;2023-08-06T09:02:20;8.73;;;4.77;;
28920;SDS011;16035;53.594;9.952;2023-08-06T09:04:23;6.43;;;4.75;;
28920;SDS011;16035;53.594;9.952;2023-08-06T09:06:25;8.38;;;4.75;;
28920;SDS011;16035;53.594;9.952;2023-08-06T09:08:27;8.10;;;5.45;;
28920;SDS011;16035;53.594;9.952;2023-08-06T09:10:42;8.75;;;4.80;;
28920;SDS011;16035;53.594;9.952;2023-08-06T09:12:43;10.43;;;5.22;;
28920;SDS011;16035;53.594;9.952;2023-08-06T09:14:44;11.55;;;5.05;;
28920;SDS011;16035;53.594;9.952;2023-08-06T09:16:45;8.43;;;4.90;;
28920;SDS011;16035;53.594;9.952;2023-08-06T09:20:48;8.33;;;4.60;;
28920;SDS011;16035;53.594;9.952;2023-08-06T09:22:48;6.57;;;4.78;;
28920;SDS011;16035;53.594;9.952;2023-08-06T09:24:49;7.63;;;4.40;;
28920;SDS011;16035;53.594;9.952;2023-08-06T09:26:49;10.67;;;4.90;;
28920;SDS011;16035;53.594;9.952;2023-08-06T09:28:50;9.80;;;4.17;;
28920;SDS011;16035;53.594;9.952;2023-08-06T09:30:52;8.48;;;5.13;;
28920;SDS011;16035;53.594;9.952;2023-08-06T09:32:55;7.53;;;4.35;;
28920;SDS011;16035;53.594;9.952;2023-08-06T09:34:56;8.37;;;4.80;;
28920;SDS011;16035;53.594;9.952;2023-08-06T09:36:56;6.15;;;4.28;;
28920;SDS011;16035;53.594;9.952;2023-08-06T09:38:57;5.50;;;4.23;;
28920;SDS011;16035;53.594;9.952;2023-08-06T09:40:57;6.50;;;3.83;;
28920;SDS011;16035;53.594;9.952;2023-08-06T09:42:58;8.87;;;4.80;;
28920;SDS011;16035;53.594;9.952;2023-08-06T09:45:05;6.72;;;4.28;;
28920;SDS011;16035;53.594;9.952;2023-08-06T09:47:06;5.63;;;4.18;;
28920;SDS011;16035;53.594;9.952;2023-08-06T09:49:06;5.87;;;3.73;;
28920;SDS011;16035;53.594;9.952;2023-08-06T09:53:08;5.70;;;4.10;;
28920;SDS011;16035;53.594;9.952;2023-08-06T09:55:09;8.50;;;4.53;;
28920;SDS011;16035;53.594;9.952;2023-08-06T09:57:12;7.10;;;4.22;;
28920;SDS011;16035;53.594;9.952;2023-08-06T09:59:13;5.35;;;4.03;;
28920;SDS011;16035;53.594;9.952;2023-08-06T10:01:16;5.93;;;3.90;;
28920;SDS011;16035;53.594;9.952;2023-08-06T10:03:17;8.55;;;4.28;;
28920;SDS011;16035;53.594;9.952;2023-08-06T10:05:18;6.22;;;4.25;;
28920;SDS011;16035;53.594;9.952;2023-08-06T10:07:19;6.70;;;4.67;;
28920;SDS011;16035;53.594;9.952;2023-08-06T10:09:20;6.72;;;3.88;;
28920;SDS011;16035;53.594;9.952;2023-08-06T10:11:23;5.50;;;4.00;;
28920;SDS011;16035;53.594;9.952;2023-08-06T10:13:25;5.70;;;3.80;;
28920;SDS011;16035;53.594;9.952;2023-08-06T10:15:26;6.43;;;3.85;;
28920;SDS011;16035;53.594;9.952;2023-08-06T10:17:29;6.35;;;4.38;;
28920;SDS011;16035;53.594;9.952;2023-08-06T10:19:31;5.82;;;3.88;;
28920;SDS011;16035;53.594;9.952;2023-08-06T10:21:33;6.35;;;4.20;;
28920;SDS011;16035;53.594;9.952;2023-08-06T10:23:33;7.90;;;4.33;;
28920;SDS011;16035;53.594;9.952;2023-08-06T10:25:39;7.88;;;4.80;;
28920;SDS011;16035;53.594;9.952;2023-08-06T10:27:53;10.05;;;5.00;;
28920;SDS011;16035;53.594;9.952;2023-08-06T10:29:54;8.35;;;4.72;;
28920;SDS011;16035;53.594;9.952;2023-08-06T10:31:55;8.73;;;4.67;;
28920;SDS011;16035;53.594;9.952;2023-08-06T10:33:59;7.85;;;4.60;;
28920;SDS011;16035;53.594;9.952;2023-08-06T10:36:01;11.70;;;4.80;;
28920;SDS011;16035;53.594;9.952;2023-08-06T10:38:08;7.28;;;4.20;;
28920;SDS011;16035;53.594;9.952;2023-08-06T10:40:15;6.05;;;4.47;;
28920;SDS011;16035;53.594;9.952;2023-08-06T10:42:21;8.35;;;4.57;;
28920;SDS011;16035;53.594;9.952;2023-08-06T10:44:34;6.57;;;4.40;;
28920;SDS011;16035;53.594;9.952;2023-08-06T10:46:41;8.68;;;4.88;;
28920;SDS011;16035;53.594;9.952;2023-08-06T10:48:43;6.27;;;4.80;;
28920;SDS011;16035;53.594;9.952;2023-08-06T10:50:45;5.82;;;3.78;;
28920;SDS011;16035;53.594;9.952;2023-08-06T10:52:46;7.27;;;4.17;;
28920;SDS011;16035;53.594;9.952;2023-08-06T10:54:47;6.10;;;3.90;;
28920;SDS011;16035;53.594;9.952;2023-08-06T10:56:47;6.30;;;4.27;;
28920;SDS011;16035;53.594;9.952;2023-08-06T10:58:48;4.67;;;4.00;;
28920;SDS011;16035;53.594;9.952;2023-08-06T11:00:49;9.02;;;5.63;;
28920;SDS011;16035;53.594;9.952;2023-08-06T11:02:51;4.87;;;4.30;;
28920;SDS011;16035;53.594;9.952;2023-08-06T11:04:53;9.80;;;5.05;;
28920;SDS011;16035;53.594;9.952;2023-08-06T11:06:53;7.27;;;5.50;;
28920;SDS011;16035;53.594;9.952;2023-08-06T11:08:54;5.20;;;4.53;;
28920;SDS011;16035;53.594;9.952;2023-08-06T11:10:55;7.57;;;5.50;;
28920;SDS011;16035;53.594;9.952;2023-08-06T11:13:07;8.93;;;4.85;;
28920;SDS011;16035;53.594;9.952;2023-08-06T11:15:07;56.47;;;7.37;;
28920;SDS011;16035;53.594;9.952;2023-08-06T11:17:08;7.25;;;4.63;;
28920;SDS011;16035;53.594;9.952;2023-08-06T11:19:08;5.27;;;4.47;;
28920;SDS011;16035;53.594;9.952;2023-08-06T11:21:10;4.63;;;4.23;;
28920;SDS011;16035;53.594;9.952;2023-08-06T11:23:12;6.18;;;4.50;;
28920;SDS011;16035;53.594;9.952;2023-08-06T11:25:14;6.40;;;4.80;;
28920;SDS011;16035;53.594;9.952;2023-08-06T11:27:15;6.13;;;5.07;;
28920;SDS011;16035;53.594;9.952;2023-08-06T11:29:16;6.78;;;4.53;;
28920;SDS011;16035;53.594;9.952;2023-08-06T11:31:23;6.63;;;5.07;;
28920;SDS011;16035;53.594;9.952;2023-08-06T11:33:24;5.75;;;4.90;;
28920;SDS011;16035;53.594;9.952;2023-08-06T11:35:27;6.15;;;4.90;;
28920;SDS011;16035;53.594;9.952;2023-08-06T11:37:27;7.17;;;4.77;;
28920;SDS011;16035;53.594;9.952;2023-08-06T11:39:28;7.87;;;5.30;;
28920;SDS011;16035;53.594;9.952;2023-08-06T11:41:28;6.83;;;4.37;;
28920;SDS011;16035;53.594;9.952;2023-08-06T11:43:30;7.05;;;4.65;;
28920;SDS011;16035;53.594;9.952;2023-08-06T11:45:31;8.25;;;5.03;;
28920;SDS011;16035;53.594;9.952;2023-08-06T11:47:31;5.10;;;4.30;;
28920;SDS011;16035;53.594;9.952;2023-08-06T11:49:38;7.53;;;4.80;;
28920;SDS011;16035;53.594;9.952;2023-08-06T11:51:40;8.30;;;4.68;;
28920;SDS011;16035;53.594;9.952;2023-08-06T11:53:40;11.43;;;5.40;;
28920;SDS011;16035;53.594;9.952;2023-08-06T11:55:41;8.70;;;5.30;;
28920;SDS011;16035;53.594;9.952;2023-08-06T11:57:45;9.85;;;5.47;;
28920;SDS011;16035;53.594;9.952;2023-08-06T11:59:46;5.72;;;4.75;;
28920;SDS011;16035;53.594;9.952;2023-08-06T12:01:47;6.27;;;4.80;;
28920;SDS011;16035;53.594;9.952;2023-08-06T12:03:47;6.97;;;5.00;;
28920;SDS011;16035;53.594;9.952;2023-08-06T12:05:47;8.83;;;5.03;;
28920;SDS011;16035;53.594;9.952;2023-08-06T12:07:48;8.30;;;5.23;;
28920;SDS011;16035;53.594;9.952;2023-08-06T12:09:50;6.35;;;4.50;;
28920;SDS011;16035;53.594;9.952;2023-08-06T12:11:50;8.60;;;5.17;;
28920;SDS011;16035;53.594;9.952;2023-08-06T12:13:51;7.63;;;4.80;;
28920;SDS011;16035;53.594;9.952;2023-08-06T12:15:53;6.50;;;4.55;;
28920;SDS011;16035;53.594;9.952;2023-08-06T12:17:54;5.10;;;4.50;;